sensor_id;sensor_type;location;lat;lon;timestamp;pressure;altitude;pressure_sealevel;temperature;humidity
47636;BME280;33364;50.766;15.338;2023-03-11T00:01:01;92368.22;;;2.00;86.59
47636;BME280;33364;50.766;15.338;2023-03-11T00:03:27;92366.13;;;2.02;86.55
47636;BME280;33364;50.766;15.338;2023-03-11T00:05:54;92375.81;;;1.97;86.60
47636;BME280;33364;50.766;15.338;2023-03-11T00:08:22;92370.28;;;1.93;86.26
47636;BME280;33364;50.766;15.338;2023-03-11T00:10:52;92378.34;;;1.81;87.06
47636;BME280;33364;50.766;15.338;2023-03-11T00:13:18;92366.00;;;1.77;86.97
47636;BME280;33364;50.766;15.338;2023-03-11T00:15:47;92371.72;;;1.69;86.92
47636;BME280;33364;50.766;15.338;2023-03-11T00:18:13;92367.53;;;1.73;86.58
47636;BME280;33364;50.766;15.338;2023-03-11T00:20:41;92371.75;;;1.74;86.17
47636;BME280;33364;50.766;15.338;2023-03-11T00:23:08;92377.25;;;1.77;85.99
47636;BME280;33364;50.766;15.338;2023-03-11T00:25:36;92378.03;;;1.78;86.67
47636;BME280;33364;50.766;15.338;2023-03-11T00:28:03;92365.69;;;1.68;86.40
47636;BME280;33364;50.766;15.338;2023-03-11T00:30:29;92369.59;;;1.65;86.82
47636;BME280;33364;50.766;15.338;2023-03-11T00:32:57;92368.53;;;1.61;86.65
47636;BME280;33364;50.766;15.338;2023-03-11T00:35:25;92367.50;;;1.62;86.47
47636;BME280;33364;50.766;15.338;2023-03-11T00:37:54;92362.16;;;1.47;86.41
47636;BME280;33364;50.766;15.338;2023-03-11T00:40:21;92365.31;;;1.49;86.46
47636;BME280;33364;50.766;15.338;2023-03-11T00:42:48;92370.31;;;1.51;86.54
47636;BME280;33364;50.766;15.338;2023-03-11T00:45:13;92365.31;;;1.49;86.56
47636;BME280;33364;50.766;15.338;2023-03-11T00:47:40;92368.72;;;1.50;86.93
47636;BME280;33364;50.766;15.338;2023-03-11T00:50:06;92369.47;;;1.45;87.19
47636;BME280;33364;50.766;15.338;2023-03-11T00:52:34;92363.72;;;1.48;87.46
47636;BME280;33364;50.766;15.338;2023-03-11T00:55:00;92357.16;;;1.45;87.14
47636;BME280;33364;50.766;15.338;2023-03-11T00:57:26;92361.84;;;1.38;87.25
47636;BME280;33364;50.766;15.338;2023-03-11T00:59:54;92361.59;;;1.40;87.20
47636;BME280;33364;50.766;15.338;2023-03-11T01:02:21;92360.31;;;1.42;86.06
47636;BME280;33364;50.766;15.338;2023-03-11T01:04:46;92365.47;;;1.37;85.49
47636;BME280;33364;50.766;15.338;2023-03-11T01:07:12;92363.06;;;1.31;86.12
47636;BME280;33364;50.766;15.338;2023-03-11T01:09:38;92360.88;;;1.17;85.92
47636;BME280;33364;50.766;15.338;2023-03-11T01:12:04;92371.88;;;1.19;85.94
47636;BME280;33364;50.766;15.338;2023-03-11T01:14:29;92361.25;;;1.26;86.27
47636;BME280;33364;50.766;15.338;2023-03-11T01:16:55;92359.13;;;1.23;85.50
47636;BME280;33364;50.766;15.338;2023-03-11T01:19:21;92360.31;;;1.10;85.66
47636;BME280;33364;50.766;15.338;2023-03-11T01:21:47;92370.25;;;1.08;85.91
47636;BME280;33364;50.766;15.338;2023-03-11T01:24:13;92365.75;;;1.03;86.22
47636;BME280;33364;50.766;15.338;2023-03-11T01:26:39;92362.66;;;1.06;85.18
47636;BME280;33364;50.766;15.338;2023-03-11T01:29:04;92368.09;;;1.00;85.02
47636;BME280;33364;50.766;15.338;2023-03-11T01:31:30;92353.34;;;0.88;85.60
47636;BME280;33364;50.766;15.338;2023-03-11T01:33:55;92368.19;;;0.83;86.40
47636;BME280;33364;50.766;15.338;2023-03-11T01:36:21;92365.53;;;0.78;86.36
47636;BME280;33364;50.766;15.338;2023-03-11T01:38:47;92367.31;;;0.72;87.11
47636;BME280;33364;50.766;15.338;2023-03-11T01:41:13;92378.63;;;0.55;85.26
47636;BME280;33364;50.766;15.338;2023-03-11T01:43:46;92397.31;;;0.42;85.60
47636;BME280;33364;50.766;15.338;2023-03-11T01:46:26;92415.66;;;0.25;85.91
47636;BME280;33364;50.766;15.338;2023-03-11T01:49:00;92415.09;;;0.01;85.25
47636;BME280;33364;50.766;15.338;2023-03-11T01:51:43;92427.53;;;-0.06;85.60
47636;BME280;33364;50.766;15.338;2023-03-11T01:54:29;92442.16;;;-0.05;84.93
47636;BME280;33364;50.766;15.338;2023-03-11T01:56:57;92455.97;;;-0.27;81.97
47636;BME280;33364;50.766;15.338;2023-03-11T01:59:28;92456.25;;;-0.23;83.04
47636;BME280;33364;50.766;15.338;2023-03-11T02:02:03;92499.13;;;-0.36;80.50
47636;BME280;33364;50.766;15.338;2023-03-11T02:04:33;92461.97;;;-0.60;79.55
47636;BME280;33364;50.766;15.338;2023-03-11T02:07:00;92467.28;;;-0.55;79.87
47636;BME280;33364;50.766;15.338;2023-03-11T02:09:26;92466.78;;;-0.69;80.03
47636;BME280;33364;50.766;15.338;2023-03-11T02:11:53;92475.06;;;-0.72;81.19
47636;BME280;33364;50.766;15.338;2023-03-11T02:14:19;92479.66;;;-0.79;80.53
47636;BME280;33364;50.766;15.338;2023-03-11T02:16:46;92461.56;;;-0.69;82.17
47636;BME280;33364;50.766;15.338;2023-03-11T02:21:56;92479.75;;;-0.74;82.82
47636;BME280;33364;50.766;15.338;2023-03-11T02:24:29;92473.19;;;-0.77;84.52
47636;BME280;33364;50.766;15.338;2023-03-11T02:27:02;92471.38;;;-0.76;83.22
47636;BME280;33364;50.766;15.338;2023-03-11T02:29:31;92477.59;;;-0.94;84.63
47636;BME280;33364;50.766;15.338;2023-03-11T02:32:00;92486.88;;;-0.98;84.23
47636;BME280;33364;50.766;15.338;2023-03-11T02:34:32;92501.56;;;-1.09;83.29
47636;BME280;33364;50.766;15.338;2023-03-11T02:36:59;92478.31;;;-1.27;83.21
47636;BME280;33364;50.766;15.338;2023-03-11T02:39:29;92497.00;;;-1.42;85.04
47636;BME280;33364;50.766;15.338;2023-03-11T02:41:56;92500.88;;;-1.45;86.00
47636;BME280;33364;50.766;15.338;2023-03-11T02:44:22;92506.56;;;-1.48;85.36
47636;BME280;33364;50.766;15.338;2023-03-11T02:46:49;92508.25;;;-1.54;86.16
47636;BME280;33364;50.766;15.338;2023-03-11T02:49:15;92514.03;;;-1.52;86.01
47636;BME280;33364;50.766;15.338;2023-03-11T02:51:41;92521.94;;;-1.46;86.89
47636;BME280;33364;50.766;15.338;2023-03-11T02:54:06;92528.63;;;-1.39;86.61
47636;BME280;33364;50.766;15.338;2023-03-11T02:56:32;92526.44;;;-1.30;85.62
47636;BME280;33364;50.766;15.338;2023-03-11T02:58:58;92534.81;;;-1.28;85.65
47636;BME280;33364;50.766;15.338;2023-03-11T03:01:24;92548.28;;;-1.19;85.40
47636;BME280;33364;50.766;15.338;2023-03-11T03:03:49;92562.97;;;-1.13;85.66
47636;BME280;33364;50.766;15.338;2023-03-11T03:06:15;92545.00;;;-1.26;85.46
47636;BME280;33364;50.766;15.338;2023-03-11T03:08:41;92551.13;;;-1.33;84.36
47636;BME280;33364;50.766;15.338;2023-03-11T03:11:07;92563.78;;;-1.24;83.17
47636;BME280;33364;50.766;15.338;2023-03-11T03:13:32;92560.00;;;-1.45;80.98
47636;BME280;33364;50.766;15.338;2023-03-11T03:15:59;92567.03;;;-1.58;82.17
47636;BME280;33364;50.766;15.338;2023-03-11T03:18:25;92575.38;;;-1.44;84.00
47636;BME280;33364;50.766;15.338;2023-03-11T03:20:51;92580.47;;;-1.49;83.56
47636;BME280;33364;50.766;15.338;2023-03-11T03:23:17;92574.38;;;-1.43;84.64
47636;BME280;33364;50.766;15.338;2023-03-11T03:25:44;92573.00;;;-1.34;84.27
47636;BME280;33364;50.766;15.338;2023-03-11T03:28:11;92578.66;;;-1.37;83.49
47636;BME280;33364;50.766;15.338;2023-03-11T03:30:37;92577.31;;;-1.27;85.01
47636;BME280;33364;50.766;15.338;2023-03-11T03:33:03;92574.69;;;-1.27;83.58
47636;BME280;33364;50.766;15.338;2023-03-11T03:35:30;92582.97;;;-1.31;83.14
47636;BME280;33364;50.766;15.338;2023-03-11T03:37:56;92581.81;;;-1.35;82.94
47636;BME280;33364;50.766;15.338;2023-03-11T03:40:21;92595.56;;;-1.63;82.09
47636;BME280;33364;50.766;15.338;2023-03-11T03:42:47;92581.19;;;-1.66;81.80
47636;BME280;33364;50.766;15.338;2023-03-11T03:45:13;92595.34;;;-1.61;83.58
47636;BME280;33364;50.766;15.338;2023-03-11T03:47:39;92585.47;;;-1.59;84.55
47636;BME280;33364;50.766;15.338;2023-03-11T03:50:07;92603.59;;;-1.64;82.89
47636;BME280;33364;50.766;15.338;2023-03-11T03:52:36;92604.72;;;-1.84;83.63
47636;BME280;33364;50.766;15.338;2023-03-11T03:55:03;92601.34;;;-1.73;85.86
47636;BME280;33364;50.766;15.338;2023-03-11T03:57:30;92602.69;;;-1.70;84.31
47636;BME280;33364;50.766;15.338;2023-03-11T03:59:56;92609.59;;;-1.88;83.24
47636;BME280;33364;50.766;15.338;2023-03-11T04:02:22;92610.72;;;-1.95;84.37
47636;BME280;33364;50.766;15.338;2023-03-11T04:04:48;92624.38;;;-2.00;84.34
47636;BME280;33364;50.766;15.338;2023-03-11T04:07:14;92618.63;;;-2.14;84.68
47636;BME280;33364;50.766;15.338;2023-03-11T04:09:41;92615.34;;;-2.09;85.17
47636;BME280;33364;50.766;15.338;2023-03-11T04:12:12;92621.66;;;-2.17;84.58
47636;BME280;33364;50.766;15.338;2023-03-11T04:14:39;92630.91;;;-2.21;85.42
47636;BME280;33364;50.766;15.338;2023-03-11T04:17:05;92621.91;;;-2.07;85.22
47636;BME280;33364;50.766;15.338;2023-03-11T04:19:31;92618.22;;;-2.29;84.55
47636;BME280;33364;50.766;15.338;2023-03-11T04:21:57;92623.00;;;-2.26;84.95
47636;BME280;33364;50.766;15.338;2023-03-11T04:24:23;92641.66;;;-2.17;84.68
47636;BME280;33364;50.766;15.338;2023-03-11T04:26:49;92632.06;;;-2.17;83.96
47636;BME280;33364;50.766;15.338;2023-03-11T04:29:14;92634.53;;;-2.22;83.33
47636;BME280;33364;50.766;15.338;2023-03-11T04:31:40;92633.06;;;-2.18;82.69
47636;BME280;33364;50.766;15.338;2023-03-11T04:34:06;92632.50;;;-2.20;82.38
47636;BME280;33364;50.766;15.338;2023-03-11T04:36:32;92627.44;;;-2.15;83.27
47636;BME280;33364;50.766;15.338;2023-03-11T04:38:58;92626.06;;;-2.17;82.72
47636;BME280;33364;50.766;15.338;2023-03-11T04:41:23;92632.75;;;-2.10;82.43
47636;BME280;33364;50.766;15.338;2023-03-11T04:43:49;92642.16;;;-2.09;82.93
47636;BME280;33364;50.766;15.338;2023-03-11T04:46:15;92639.97;;;-2.24;82.27
47636;BME280;33364;50.766;15.338;2023-03-11T04:48:41;92629.69;;;-2.18;83.87
47636;BME280;33364;50.766;15.338;2023-03-11T04:51:07;92628.44;;;-2.16;83.30
47636;BME280;33364;50.766;15.338;2023-03-11T04:53:33;92657.41;;;-2.12;82.64
47636;BME280;33364;50.766;15.338;2023-03-11T04:55:58;92649.28;;;-2.04;83.67
47636;BME280;33364;50.766;15.338;2023-03-11T04:58:24;92658.09;;;-2.05;82.87
47636;BME280;33364;50.766;15.338;2023-03-11T05:00:51;92658.75;;;-2.10;83.31
47636;BME280;33364;50.766;15.338;2023-03-11T05:03:17;92671.00;;;-1.98;83.25
47636;BME280;33364;50.766;15.338;2023-03-11T05:05:43;92673.28;;;-1.90;84.02
47636;BME280;33364;50.766;15.338;2023-03-11T05:08:10;92687.88;;;-2.01;83.12
47636;BME280;33364;50.766;15.338;2023-03-11T05:10:36;92683.13;;;-1.92;82.54
47636;BME280;33364;50.766;15.338;2023-03-11T05:13:02;92696.38;;;-1.82;82.79
47636;BME280;33364;50.766;15.338;2023-03-11T05:15:27;92699.19;;;-1.95;82.92
47636;BME280;33364;50.766;15.338;2023-03-11T05:17:56;92715.56;;;-2.07;81.35
47636;BME280;33364;50.766;15.338;2023-03-11T05:20:22;92709.91;;;-2.04;81.92
47636;BME280;33364;50.766;15.338;2023-03-11T05:22:48;92716.97;;;-1.92;81.76
47636;BME280;33364;50.766;15.338;2023-03-11T05:25:13;92717.47;;;-2.14;81.48
47636;BME280;33364;50.766;15.338;2023-03-11T05:27:40;92731.28;;;-2.13;82.12
47636;BME280;33364;50.766;15.338;2023-03-11T05:30:06;92739.69;;;-1.99;81.07
47636;BME280;33364;50.766;15.338;2023-03-11T05:32:32;92744.31;;;-2.01;81.75
47636;BME280;33364;50.766;15.338;2023-03-11T05:34:58;92738.66;;;-1.98;82.64
47636;BME280;33364;50.766;15.338;2023-03-11T05:37:23;92746.94;;;-1.90;81.36
47636;BME280;33364;50.766;15.338;2023-03-11T05:39:51;92738.09;;;-2.00;79.73
47636;BME280;33364;50.766;15.338;2023-03-11T05:42:17;92747.47;;;-1.99;81.46
47636;BME280;33364;50.766;15.338;2023-03-11T05:44:43;92752.97;;;-1.89;82.54
47636;BME280;33364;50.766;15.338;2023-03-11T05:47:09;92765.75;;;-1.88;81.99
47636;BME280;33364;50.766;15.338;2023-03-11T05:49:34;92770.06;;;-1.81;81.67
47636;BME280;33364;50.766;15.338;2023-03-11T05:52:00;92780.34;;;-1.87;79.48
47636;BME280;33364;50.766;15.338;2023-03-11T05:54:26;92788.66;;;-1.78;81.35
47636;BME280;33364;50.766;15.338;2023-03-11T05:56:52;92785.00;;;-1.89;79.97
47636;BME280;33364;50.766;15.338;2023-03-11T05:59:18;92795.22;;;-2.06;80.44
47636;BME280;33364;50.766;15.338;2023-03-11T06:01:44;92804.94;;;-1.82;82.07
47636;BME280;33364;50.766;15.338;2023-03-11T06:04:10;92827.97;;;-1.68;81.01
47636;BME280;33364;50.766;15.338;2023-03-11T06:06:38;92815.25;;;-1.76;79.74
47636;BME280;33364;50.766;15.338;2023-03-11T06:09:05;92820.50;;;-1.64;81.18
47636;BME280;33364;50.766;15.338;2023-03-11T06:11:31;92831.13;;;-1.66;79.59
47636;BME280;33364;50.766;15.338;2023-03-11T06:13:57;92837.38;;;-1.67;79.33
47636;BME280;33364;50.766;15.338;2023-03-11T06:16:24;92839.69;;;-1.46;80.82
47636;BME280;33364;50.766;15.338;2023-03-11T06:18:50;92853.63;;;-1.41;81.21
47636;BME280;33364;50.766;15.338;2023-03-11T06:21:19;92871.56;;;-1.63;78.13
47636;BME280;33364;50.766;15.338;2023-03-11T06:23:46;92866.38;;;-1.63;82.01
47636;BME280;33364;50.766;15.338;2023-03-11T06:26:14;92863.94;;;-1.76;78.37
47636;BME280;33364;50.766;15.338;2023-03-11T06:28:44;92874.84;;;-1.68;78.77
47636;BME280;33364;50.766;15.338;2023-03-11T06:31:15;92907.38;;;-1.77;79.19
47636;BME280;33364;50.766;15.338;2023-03-11T06:33:42;92891.63;;;-1.63;79.44
47636;BME280;33364;50.766;15.338;2023-03-11T06:36:11;92907.47;;;-1.83;78.16
47636;BME280;33364;50.766;15.338;2023-03-11T06:38:37;92916.38;;;-1.91;78.04
47636;BME280;33364;50.766;15.338;2023-03-11T06:41:05;92915.91;;;-1.88;80.16
47636;BME280;33364;50.766;15.338;2023-03-11T06:43:31;92924.00;;;-1.96;78.42
47636;BME280;33364;50.766;15.338;2023-03-11T06:45:58;92938.03;;;-1.79;79.19
47636;BME280;33364;50.766;15.338;2023-03-11T06:48:24;92934.81;;;-1.93;79.22
47636;BME280;33364;50.766;15.338;2023-03-11T06:50:58;92960.44;;;-1.96;78.55
47636;BME280;33364;50.766;15.338;2023-03-11T06:53:25;92967.19;;;-1.89;79.74
47636;BME280;33364;50.766;15.338;2023-03-11T06:56:06;92968.56;;;-1.86;78.94
47636;BME280;33364;50.766;15.338;2023-03-11T06:58:33;92981.31;;;-1.78;80.00
47636;BME280;33364;50.766;15.338;2023-03-11T07:03:35;92998.56;;;-1.83;80.11
47636;BME280;33364;50.766;15.338;2023-03-11T07:06:01;92995.69;;;-1.94;77.84
47636;BME280;33364;50.766;15.338;2023-03-11T07:08:27;93008.03;;;-1.89;78.44
47636;BME280;33364;50.766;15.338;2023-03-11T07:13:27;93020.31;;;-1.96;79.11
47636;BME280;33364;50.766;15.338;2023-03-11T07:16:07;93031.13;;;-1.93;79.06
47636;BME280;33364;50.766;15.338;2023-03-11T07:18:34;93032.59;;;-2.04;78.70
47636;BME280;33364;50.766;15.338;2023-03-11T07:21:01;93037.91;;;-2.17;78.78
47636;BME280;33364;50.766;15.338;2023-03-11T07:23:27;93040.97;;;-2.01;81.50
47636;BME280;33364;50.766;15.338;2023-03-11T07:25:53;93053.78;;;-2.00;78.44
47636;BME280;33364;50.766;15.338;2023-03-11T07:28:21;93057.59;;;-1.77;79.40
47636;BME280;33364;50.766;15.338;2023-03-11T07:30:47;93065.53;;;-1.91;77.67
47636;BME280;33364;50.766;15.338;2023-03-11T07:33:13;93071.25;;;-1.82;79.30
47636;BME280;33364;50.766;15.338;2023-03-11T07:35:39;93077.41;;;-2.01;78.04
47636;BME280;33364;50.766;15.338;2023-03-11T07:38:05;93077.16;;;-1.93;78.66
47636;BME280;33364;50.766;15.338;2023-03-11T07:40:31;93089.81;;;-1.78;78.13
47636;BME280;33364;50.766;15.338;2023-03-11T07:42:57;93095.09;;;-1.60;79.86
47636;BME280;33364;50.766;15.338;2023-03-11T07:45:23;93108.75;;;-1.64;76.99
47636;BME280;33364;50.766;15.338;2023-03-11T07:47:48;93113.00;;;-1.70;77.18
47636;BME280;33364;50.766;15.338;2023-03-11T07:50:14;93119.00;;;-1.70;77.57
47636;BME280;33364;50.766;15.338;2023-03-11T07:52:42;93116.97;;;-1.68;78.43
47636;BME280;33364;50.766;15.338;2023-03-11T07:55:08;93117.09;;;-1.81;76.51
47636;BME280;33364;50.766;15.338;2023-03-11T07:57:34;93144.50;;;-1.78;77.89
47636;BME280;33364;50.766;15.338;2023-03-11T08:00:00;93154.50;;;-1.75;77.06
47636;BME280;33364;50.766;15.338;2023-03-11T08:02:26;93163.78;;;-1.61;78.50
47636;BME280;33364;50.766;15.338;2023-03-11T08:04:51;93155.69;;;-1.71;76.99
47636;BME280;33364;50.766;15.338;2023-03-11T08:07:17;93172.94;;;-1.52;80.49
47636;BME280;33364;50.766;15.338;2023-03-11T08:09:45;93177.47;;;-1.40;79.62
47636;BME280;33364;50.766;15.338;2023-03-11T08:12:11;93185.34;;;-1.47;77.06
47636;BME280;33364;50.766;15.338;2023-03-11T08:14:36;93189.56;;;-1.53;76.80
47636;BME280;33364;50.766;15.338;2023-03-11T08:17:04;93199.19;;;-1.53;76.90
47636;BME280;33364;50.766;15.338;2023-03-11T08:19:30;93208.44;;;-1.57;77.27
47636;BME280;33364;50.766;15.338;2023-03-11T08:21:56;93208.13;;;-1.68;77.24
47636;BME280;33364;50.766;15.338;2023-03-11T08:24:22;93216.19;;;-1.76;77.88
47636;BME280;33364;50.766;15.338;2023-03-11T08:26:47;93216.19;;;-1.76;77.67
47636;BME280;33364;50.766;15.338;2023-03-11T08:29:13;93239.63;;;-1.76;76.96
47636;BME280;33364;50.766;15.338;2023-03-11T08:31:39;93235.16;;;-1.69;77.27
47636;BME280;33364;50.766;15.338;2023-03-11T08:34:08;93249.31;;;-1.58;77.45
47636;BME280;33364;50.766;15.338;2023-03-11T08:36:34;93251.44;;;-1.48;76.67
47636;BME280;33364;50.766;15.338;2023-03-11T08:39:00;93256.91;;;-1.56;76.57
47636;BME280;33364;50.766;15.338;2023-03-11T08:41:26;93263.19;;;-1.64;75.93
47636;BME280;33364;50.766;15.338;2023-03-11T08:43:52;93267.47;;;-1.76;75.49
47636;BME280;33364;50.766;15.338;2023-03-11T08:46:37;93269.22;;;-1.70;77.20
47636;BME280;33364;50.766;15.338;2023-03-11T08:49:04;93272.88;;;-1.46;77.07
47636;BME280;33364;50.766;15.338;2023-03-11T08:51:32;93290.69;;;-1.18;78.72
47636;BME280;33364;50.766;15.338;2023-03-11T08:53:59;93296.41;;;-1.27;74.89
47636;BME280;33364;50.766;15.338;2023-03-11T08:56:25;93304.28;;;-1.41;73.76
47636;BME280;33364;50.766;15.338;2023-03-11T08:58:51;93302.50;;;-1.40;76.69
47636;BME280;33364;50.766;15.338;2023-03-11T09:01:17;93312.97;;;-1.47;74.79
47636;BME280;33364;50.766;15.338;2023-03-11T09:03:43;93309.53;;;-1.16;75.78
47636;BME280;33364;50.766;15.338;2023-03-11T09:06:12;93316.28;;;-1.08;77.70
47636;BME280;33364;50.766;15.338;2023-03-11T09:08:40;93341.25;;;-0.94;76.01
47636;BME280;33364;50.766;15.338;2023-03-11T09:11:06;93330.97;;;-0.88;78.56
47636;BME280;33364;50.766;15.338;2023-03-11T09:13:32;93344.59;;;-0.61;77.84
47636;BME280;33364;50.766;15.338;2023-03-11T09:15:58;93352.41;;;-0.61;72.30
47636;BME280;33364;50.766;15.338;2023-03-11T09:18:24;93361.13;;;-0.74;72.46
47636;BME280;33364;50.766;15.338;2023-03-11T09:20:51;93364.75;;;-0.50;74.97
47636;BME280;33364;50.766;15.338;2023-03-11T09:23:22;93376.94;;;-0.44;69.39
47636;BME280;33364;50.766;15.338;2023-03-11T09:25:48;93383.28;;;-0.58;72.35
47636;BME280;33364;50.766;15.338;2023-03-11T09:28:14;93381.03;;;-0.54;73.14
47636;BME280;33364;50.766;15.338;2023-03-11T09:30:40;93402.28;;;-0.76;71.60
47636;BME280;33364;50.766;15.338;2023-03-11T09:33:06;93398.66;;;-1.32;72.71
47636;BME280;33364;50.766;15.338;2023-03-11T09:35:32;93409.19;;;-1.20;74.31
47636;BME280;33364;50.766;15.338;2023-03-11T09:37:58;93417.03;;;-1.20;73.40
47636;BME280;33364;50.766;15.338;2023-03-11T09:40:25;93413.44;;;-1.26;71.91
47636;BME280;33364;50.766;15.338;2023-03-11T09:45:43;93418.19;;;-0.84;74.16
47636;BME280;33364;50.766;15.338;2023-03-11T09:48:22;93419.66;;;-0.63;72.43
47636;BME280;33364;50.766;15.338;2023-03-11T09:50:58;93425.69;;;-0.95;72.82
47636;BME280;33364;50.766;15.338;2023-03-11T09:53:34;93436.44;;;-0.84;73.51
47636;BME280;33364;50.766;15.338;2023-03-11T09:56:03;93436.78;;;-0.74;73.43
47636;BME280;33364;50.766;15.338;2023-03-11T10:01:17;93464.56;;;-0.86;70.89
47636;BME280;33364;50.766;15.338;2023-03-11T10:03:44;93462.34;;;-1.28;72.33
47636;BME280;33364;50.766;15.338;2023-03-11T10:06:14;93470.34;;;-1.23;71.81
47636;BME280;33364;50.766;15.338;2023-03-11T10:11:28;93467.28;;;-0.75;73.67
47636;BME280;33364;50.766;15.338;2023-03-11T10:16:31;93488.56;;;-0.78;74.35
47636;BME280;33364;50.766;15.338;2023-03-11T10:19:10;93482.38;;;-1.22;72.30
47636;BME280;33364;50.766;15.338;2023-03-11T10:21:49;93491.41;;;-1.24;73.75
47636;BME280;33364;50.766;15.338;2023-03-11T10:24:50;93498.03;;;-0.83;73.47
47636;BME280;33364;50.766;15.338;2023-03-11T10:27:48;93520.34;;;-0.94;75.82
47636;BME280;33364;50.766;15.338;2023-03-11T10:32:58;93505.22;;;-1.17;70.72
47636;BME280;33364;50.766;15.338;2023-03-11T10:35:40;93512.88;;;-1.22;71.34
47636;BME280;33364;50.766;15.338;2023-03-11T10:40:41;93520.41;;;-1.07;71.79
47636;BME280;33364;50.766;15.338;2023-03-11T10:43:32;93524.16;;;-0.58;71.42
47636;BME280;33364;50.766;15.338;2023-03-11T10:46:03;93526.47;;;-0.43;68.72
47636;BME280;33364;50.766;15.338;2023-03-11T10:48:31;93525.31;;;0.03;67.80
47636;BME280;33364;50.766;15.338;2023-03-11T10:51:02;93539.16;;;0.29;68.11
47636;BME280;33364;50.766;15.338;2023-03-11T10:53:29;93536.69;;;-0.16;67.96
47636;BME280;33364;50.766;15.338;2023-03-11T10:55:57;93550.84;;;-0.24;70.39
47636;BME280;33364;50.766;15.338;2023-03-11T10:58:28;93545.81;;;-0.26;68.36
47636;BME280;33364;50.766;15.338;2023-03-11T11:01:00;93554.31;;;-0.69;66.88
47636;BME280;33364;50.766;15.338;2023-03-11T11:03:26;93561.53;;;-0.71;68.45
47636;BME280;33364;50.766;15.338;2023-03-11T11:06:06;93554.66;;;-0.59;66.90
47636;BME280;33364;50.766;15.338;2023-03-11T11:08:44;93551.69;;;-0.69;66.25
47636;BME280;33364;50.766;15.338;2023-03-11T11:11:21;93557.03;;;-0.50;67.67
47636;BME280;33364;50.766;15.338;2023-03-11T11:13:58;93551.78;;;-0.82;67.61
47636;BME280;33364;50.766;15.338;2023-03-11T11:16:25;93557.53;;;-0.67;70.29
47636;BME280;33364;50.766;15.338;2023-03-11T11:19:07;93567.44;;;-0.19;70.33
47636;BME280;33364;50.766;15.338;2023-03-11T11:21:39;93567.28;;;-0.24;67.90
47636;BME280;33364;50.766;15.338;2023-03-11T11:24:13;93576.28;;;-0.51;70.68
47636;BME280;33364;50.766;15.338;2023-03-11T11:29:36;93577.16;;;-1.09;68.93
47636;BME280;33364;50.766;15.338;2023-03-11T11:35:03;93582.00;;;-1.20;71.29
47636;BME280;33364;50.766;15.338;2023-03-11T11:37:33;93584.84;;;-1.35;72.46
47636;BME280;33364;50.766;15.338;2023-03-11T11:43:17;93592.16;;;-1.05;72.56
47636;BME280;33364;50.766;15.338;2023-03-11T11:45:45;93606.63;;;-1.09;72.59
47636;BME280;33364;50.766;15.338;2023-03-11T11:50:55;93606.34;;;-0.81;71.34
47636;BME280;33364;50.766;15.338;2023-03-11T11:53:41;93601.88;;;-0.35;70.59
47636;BME280;33364;50.766;15.338;2023-03-11T11:56:08;93607.88;;;-0.28;70.33
47636;BME280;33364;50.766;15.338;2023-03-11T11:58:34;93610.09;;;-0.70;66.14
47636;BME280;33364;50.766;15.338;2023-03-11T12:06:18;93608.97;;;-0.87;68.50
47636;BME280;33364;50.766;15.338;2023-03-11T12:09:09;93626.28;;;-0.54;69.38
47636;BME280;33364;50.766;15.338;2023-03-11T12:15:20;93624.94;;;-0.64;71.20
47636;BME280;33364;50.766;15.338;2023-03-11T12:17:51;93636.53;;;-0.60;71.83
47636;BME280;33364;50.766;15.338;2023-03-11T12:20:55;93635.91;;;-1.14;71.00
47636;BME280;33364;50.766;15.338;2023-03-11T12:26:14;93636.69;;;-1.06;67.70
47636;BME280;33364;50.766;15.338;2023-03-11T12:31:15;93645.28;;;-0.93;68.66
47636;BME280;33364;50.766;15.338;2023-03-11T12:33:53;93651.84;;;-0.70;71.43
47636;BME280;33364;50.766;15.338;2023-03-11T12:36:32;93646.81;;;-0.65;66.47
47636;BME280;33364;50.766;15.338;2023-03-11T12:39:00;93651.53;;;0.47;64.56
47636;BME280;33364;50.766;15.338;2023-03-11T12:44:28;93650.06;;;-0.31;66.57
47636;BME280;33364;50.766;15.338;2023-03-11T12:54:42;93660.66;;;-0.71;72.75
47636;BME280;33364;50.766;15.338;2023-03-11T13:08:22;93699.69;;;-1.23;70.58
47636;BME280;33364;50.766;15.338;2023-03-11T13:10:50;93697.69;;;-1.48;73.08
47636;BME280;33364;50.766;15.338;2023-03-11T13:15:50;93710.13;;;-1.50;74.34
47636;BME280;33364;50.766;15.338;2023-03-11T13:18:23;93707.25;;;-0.88;71.85
47636;BME280;33364;50.766;15.338;2023-03-11T13:23:29;93722.03;;;-0.55;66.12
47636;BME280;33364;50.766;15.338;2023-03-11T13:33:47;93719.13;;;-1.12;68.72
47636;BME280;33364;50.766;15.338;2023-03-11T13:41:40;93741.69;;;-0.66;65.40
47636;BME280;33364;50.766;15.338;2023-03-11T13:46:40;93745.38;;;0.81;63.36
47636;BME280;33364;50.766;15.338;2023-03-11T13:52:07;93749.16;;;1.72;57.30
47636;BME280;33364;50.766;15.338;2023-03-11T13:54:57;93762.75;;;1.44;61.14
47636;BME280;33364;50.766;15.338;2023-03-11T13:59:52;93755.38;;;0.59;60.32
47636;BME280;33364;50.766;15.338;2023-03-11T14:02:21;93768.84;;;0.62;61.61
47636;BME280;33364;50.766;15.338;2023-03-11T14:05:39;93773.59;;;0.02;64.56
47636;BME280;33364;50.766;15.338;2023-03-11T14:08:20;93774.13;;;-0.35;61.35
47636;BME280;33364;50.766;15.338;2023-03-11T14:11:12;93786.03;;;-0.52;64.93
47636;BME280;33364;50.766;15.338;2023-03-11T14:13:42;93780.47;;;-0.89;63.58
47636;BME280;33364;50.766;15.338;2023-03-11T14:19:26;93785.09;;;-1.05;68.53
47636;BME280;33364;50.766;15.338;2023-03-11T14:21:53;93787.44;;;-0.57;70.65
47636;BME280;33364;50.766;15.338;2023-03-11T14:24:27;93783.25;;;-0.64;67.81
47636;BME280;33364;50.766;15.338;2023-03-11T14:26:56;93789.66;;;-0.60;69.57
47636;BME280;33364;50.766;15.338;2023-03-11T14:31:55;93790.38;;;-0.26;69.41
47636;BME280;33364;50.766;15.338;2023-03-11T14:34:22;93796.44;;;-0.39;69.02
47636;BME280;33364;50.766;15.338;2023-03-11T14:36:59;93797.25;;;-0.39;66.54
47636;BME280;33364;50.766;15.338;2023-03-11T14:39:36;93802.50;;;-0.59;68.79
47636;BME280;33364;50.766;15.338;2023-03-11T14:42:20;93811.75;;;0.09;72.00
47636;BME280;33364;50.766;15.338;2023-03-11T14:45:08;93817.34;;;0.83;66.35